Time;durP1;ratioP1;P1;durP2;ratioP2;P2;SDS_P1;SDS_P2;PMS_P1;PMS_P2;Temp;Humidity;BMP_temperature;BMP_pressure;BME280_temperature;BME280_humidity;BME280_pressure;Samples;Min_cycle;Max_cycle;Signal;HPM_P1;HPM_P2
2023/07/12 00:01:35;;;;;;;10.75;5.07;;;30.10;50.20;;;;;;6216209;23;20001;-77
2023/07/12 00:04:02;;;;;;;13.40;5.40;;;30.10;50.10;;;;;;6216249;23;20280;-77
2023/07/12 00:06:36;;;;;;;13.50;5.28;;;30.10;50.20;;;;;;6216486;23;20091;-76
2023/07/12 00:09:11;;;;;;;17.15;5.40;;;30.00;50.60;;;;;;6217708;23;20062;-77
2023/07/12 00:11:36;;;;;;;13.35;5.43;;;30.00;50.80;;;;;;6216059;23;20004;-78
2023/07/12 00:14:02;;;;;;;12.80;5.43;;;29.90;50.80;;;;;;6215709;23;20008;-78
2023/07/12 00:16:33;;;;;;;16.55;5.55;;;29.80;51.00;;;;;;6216141;23;20071;-77
2023/07/12 00:18:59;;;;;;;12.57;5.38;;;29.80;51.30;;;;;;6215662;23;20009;-77
2023/07/12 00:21:28;;;;;;;10.85;5.05;;;29.70;51.30;;;;;;6218753;23;20016;-77
2023/07/12 00:23:55;;;;;;;11.68;5.00;;;29.70;51.40;;;;;;6245998;23;20450;-77
2023/07/12 00:26:21;;;;;;;11.77;5.10;;;29.60;51.40;;;;;;6245997;23;20011;-77
2023/07/12 00:28:47;;;;;;;12.95;4.97;;;29.60;51.50;;;;;;6245769;23;20008;-77
2023/07/12 00:31:12;;;;;;;16.73;5.47;;;29.60;51.40;;;;;;6219148;23;20047;-77
2023/07/12 00:33:38;;;;;;;13.80;5.47;;;29.60;51.20;;;;;;6245785;23;20019;-77
2023/07/12 00:36:08;;;;;;;12.88;5.25;;;29.60;51.40;;;;;;6246307;23;20004;-79
2023/07/12 00:38:34;;;;;;;11.35;4.85;;;29.70;51.60;;;;;;6246757;23;20022;-78
2023/07/12 00:41:33;;;;;;;15.82;5.28;;;29.70;52.10;;;;;;6246401;23;20438;-78
2023/07/12 00:44:06;;;;;;;11.98;5.00;;;29.70;50.40;;;;;;6246911;23;19996;-78
2023/07/12 00:46:42;;;;;;;13.73;4.97;;;29.60;51.50;;;;;;6246594;23;20080;-77
2023/07/12 00:49:11;;;;;;;20.00;4.88;;;29.60;51.60;;;;;;6246536;23;20027;-78
2023/07/12 00:52:09;;;;;;;10.73;4.82;;;29.60;51.50;;;;;;6246217;23;20028;-78
2023/07/12 00:54:55;;;;;;;18.17;6.28;;;29.50;50.40;;;;;;6246509;23;20472;-77
2023/07/12 00:57:26;;;;;;;11.20;4.70;;;29.50;51.90;;;;;;6246281;23;20329;-77
2023/07/12 00:59:55;;;;;;;12.63;5.05;;;29.50;52.10;;;;;;6246039;23;20003;-77
2023/07/12 01:02:24;;;;;;;17.10;6.28;;;29.40;52.10;;;;;;6246310;23;20022;-76
2023/07/12 01:04:53;;;;;;;10.02;4.90;;;29.40;52.10;;;;;;6246114;23;20050;-77
2023/07/12 01:07:20;;;;;;;18.20;5.78;;;29.40;52.10;;;;;;6246229;23;20062;-78
2023/07/12 01:09:46;;;;;;;15.98;5.13;;;29.40;52.30;;;;;;6245855;23;20023;-78
2023/07/12 01:12:13;;;;;;;10.38;5.07;;;29.40;52.70;;;;;;6245189;23;19996;-77
2023/07/12 01:14:41;;;;;;;16.85;5.68;;;29.40;52.30;;;;;;6245829;23;20032;-76
2023/07/12 01:17:08;;;;;;;12.70;4.80;;;29.30;52.40;;;;;;6245340;23;20034;-76
2023/07/12 01:19:36;;;;;;;13.27;5.20;;;29.30;52.40;;;;;;6245568;23;20319;-77
2023/07/12 01:22:04;;;;;;;12.50;5.45;;;29.30;52.50;;;;;;6245300;23;20003;-77
2023/07/12 01:24:31;;;;;;;13.93;5.47;;;29.30;52.60;;;;;;6245759;23;20127;-77
2023/07/12 01:27:01;;;;;;;13.07;5.50;;;29.30;52.60;;;;;;6245407;23;20008;-77
2023/07/12 01:29:28;;;;;;;15.27;5.35;;;29.30;52.80;;;;;;6245527;23;20333;-77
2023/07/12 01:31:54;;;;;;;15.82;5.55;;;29.30;52.80;;;;;;6245455;23;20015;-76
2023/07/12 01:34:23;;;;;;;9.80;5.18;;;29.30;52.70;;;;;;6248076;23;20008;-76
2023/07/12 01:36:49;;;;;;;11.90;5.18;;;29.30;52.70;;;;;;6245207;23;20072;-77
2023/07/12 01:39:14;;;;;;;11.70;5.43;;;29.20;52.70;;;;;;6245216;23;20413;-76
2023/07/12 01:41:40;;;;;;;18.40;5.55;;;29.20;52.80;;;;;;6245325;23;20000;-76
2023/07/12 01:44:06;;;;;;;13.88;4.95;;;29.20;52.80;;;;;;6245053;23;20445;-77
2023/07/12 01:46:32;;;;;;;11.52;4.75;;;29.10;52.80;;;;;;6245351;23;19996;-76
2023/07/12 01:48:58;;;;;;;15.63;4.75;;;29.10;52.90;;;;;;6245072;23;20079;-76
2023/07/12 01:51:24;;;;;;;12.00;4.65;;;29.10;52.90;;;;;;6245136;23;20302;-77
2023/07/12 01:53:50;;;;;;;14.80;5.10;;;29.00;52.90;;;;;;6245108;23;20314;-76
2023/07/12 01:56:16;;;;;;;12.23;4.88;;;28.90;52.90;;;;;;6244947;23;20299;-79
2023/07/12 01:58:43;;;;;;;17.65;5.47;;;29.00;52.90;;;;;;6245355;23;20000;-78
2023/07/12 02:01:08;;;;;;;12.80;5.95;;;29.00;52.80;;;;;;6245137;23;20332;-77
2023/07/12 02:03:34;;;;;;;11.32;4.90;;;29.10;52.70;;;;;;6244800;23;20004;-77
2023/07/12 02:06:00;;;;;;;18.00;5.45;;;29.00;52.80;;;;;;6245324;23;20315;-77
2023/07/12 02:08:26;;;;;;;17.08;5.32;;;29.00;52.70;;;;;;6245212;23;20385;-77
2023/07/12 02:10:52;;;;;;;18.15;5.38;;;29.00;52.90;;;;;;6244661;23;20000;-77
2023/07/12 02:13:19;;;;;;;15.45;5.15;;;29.00;52.80;;;;;;6244458;23;20334;-77
2023/07/12 02:15:45;;;;;;;16.20;5.13;;;29.00;52.90;;;;;;6217259;23;20337;-76
2023/07/12 02:18:12;;;;;;;10.07;4.40;;;28.90;53.10;;;;;;6244113;23;20067;-77
2023/07/12 02:20:39;;;;;;;13.60;5.03;;;28.90;53.20;;;;;;6244488;23;20134;-76
2023/07/12 02:23:05;;;;;;;15.00;5.55;;;28.90;53.20;;;;;;6244558;23;20012;-77
2023/07/12 02:25:31;;;;;;;13.50;5.45;;;29.00;53.30;;;;;;6246089;23;19996;-77
2023/07/12 02:27:56;;;;;;;11.70;5.20;;;29.00;53.30;;;;;;6244672;23;20000;-76
2023/07/12 02:30:25;;;;;;;14.20;4.78;;;28.90;53.60;;;;;;6244417;23;20446;-76
2023/07/12 02:32:52;;;;;;;10.90;5.05;;;28.90;53.60;;;;;;6244649;23;19997;-77
2023/07/12 02:35:18;;;;;;;14.35;4.93;;;28.80;53.80;;;;;;6244310;23;20012;-76
2023/07/12 02:37:44;;;;;;;13.07;5.68;;;28.80;53.70;;;;;;6244681;23;20000;-76
2023/07/12 02:40:14;;;;;;;14.63;5.43;;;28.80;53.80;;;;;;6244707;23;20005;-77
2023/07/12 02:42:40;;;;;;;20.90;5.72;;;28.80;53.80;;;;;;6244711;23;20058;-77
2023/07/12 02:45:07;;;;;;;14.60;5.45;;;28.80;54.00;;;;;;6244289;23;19996;-76
2023/07/12 02:47:33;;;;;;;10.43;5.10;;;28.80;54.20;;;;;;6244416;23;20717;-78
2023/07/12 02:49:59;;;;;;;11.85;5.18;;;28.80;54.30;;;;;;6244544;23;20375;-76
2023/07/12 02:52:25;;;;;;;18.05;5.55;;;28.80;54.20;;;;;;6244504;23;20031;-76
2023/07/12 02:54:51;;;;;;;11.98;5.20;;;28.80;54.30;;;;;;6217569;23;20389;-77
2023/07/12 02:57:17;;;;;;;10.38;4.97;;;28.60;54.30;;;;;;6245157;23;20004;-76
2023/07/12 02:59:43;;;;;;;12.52;5.32;;;28.50;54.60;;;;;;6244653;23;20000;-78
2023/07/12 03:02:10;;;;;;;12.95;5.35;;;28.40;55.30;;;;;;6244610;23;20011;-77
2023/07/12 03:04:36;;;;;;;10.90;4.68;;;28.20;54.80;;;;;;6244828;23;20007;-79
2023/07/12 03:07:02;;;;;;;16.00;4.88;;;28.10;55.00;;;;;;6244920;23;19996;-79
2023/07/12 03:09:28;;;;;;;13.05;5.28;;;28.10;55.10;;;;;;6244701;23;20027;-78
2023/07/12 03:11:54;;;;;;;16.40;5.20;;;28.00;55.10;;;;;;6244853;23;20000;-79
2023/07/12 03:14:21;;;;;;;15.10;5.15;;;28.00;55.20;;;;;;6246251;23;20012;-77
2023/07/12 03:16:46;;;;;;;16.13;5.30;;;28.00;55.30;;;;;;6246352;23;20003;-78
2023/07/12 03:19:14;;;;;;;12.73;5.05;;;28.00;55.30;;;;;;6245741;23;20008;-77
2023/07/12 03:21:39;;;;;;;15.65;5.43;;;28.00;55.30;;;;;;6246821;23;20334;-78
2023/07/12 03:24:06;;;;;;;9.52;4.55;;;28.00;55.50;;;;;;6244871;23;20042;-78
2023/07/12 03:26:32;;;;;;;15.05;4.97;;;28.00;56.20;;;;;;6244997;23;20430;-77
2023/07/12 03:28:58;;;;;;;10.20;4.80;;;28.00;55.60;;;;;;6244709;23;20134;-78
2023/07/12 03:31:26;;;;;;;13.13;5.10;;;28.10;56.00;;;;;;6244758;23;20047;-78
2023/07/12 03:33:52;;;;;;;11.50;5.25;;;28.10;55.70;;;;;;6244671;23;20389;-79
2023/07/12 03:36:19;;;;;;;11.57;4.47;;;28.10;56.00;;;;;;6244919;23;19996;-77
2023/07/12 03:38:45;;;;;;;17.38;6.10;;;28.10;56.50;;;;;;6244732;23;20007;-78
2023/07/12 03:41:15;;;;;;;15.48;5.45;;;28.10;56.10;;;;;;6244838;23;20118;-78
2023/07/12 03:43:41;;;;;;;13.32;5.43;;;28.00;56.30;;;;;;6218042;23;20557;-78
2023/07/12 03:46:07;;;;;;;12.80;5.30;;;28.00;56.50;;;;;;6244573;23;20027;-79
2023/07/12 03:48:33;;;;;;;10.18;5.13;;;28.00;56.70;;;;;;6244152;23;20106;-78
2023/07/12 03:50:59;;;;;;;11.90;5.00;;;28.10;56.80;;;;;;6244383;23;20067;-78
2023/07/12 03:53:26;;;;;;;19.15;5.68;;;28.10;56.70;;;;;;6244387;23;20043;-78
2023/07/12 03:55:52;;;;;;;17.02;4.97;;;28.20;56.50;;;;;;6244699;23;20039;-78
2023/07/12 03:58:21;;;;;;;13.57;5.18;;;28.20;56.10;;;;;;6244231;23;19996;-78
2023/07/12 04:00:49;;;;;;;13.13;4.90;;;28.30;56.20;;;;;;6244574;23;20004;-77
2023/07/12 04:03:16;;;;;;;10.77;4.82;;;28.30;56.30;;;;;;6244723;23;20062;-77
2023/07/12 04:05:42;;;;;;;16.70;5.75;;;28.30;56.30;;;;;;6244665;23;20003;-78
2023/07/12 04:08:11;;;;;;;18.08;4.90;;;28.30;56.40;;;;;;6217406;23;20301;-78
2023/07/12 04:10:38;;;;;;;11.93;6.20;;;28.30;55.80;;;;;;6243915;23;19996;-78
2023/07/12 04:13:04;;;;;;;11.70;5.03;;;28.30;55.70;;;;;;6243913;23;20004;-78
2023/07/12 04:15:30;;;;;;;13.55;4.95;;;28.30;55.70;;;;;;6244561;23;20000;-77
2023/07/12 04:17:56;;;;;;;15.65;5.97;;;28.40;55.60;;;;;;6244307;23;20007;-78
2023/07/12 04:20:22;;;;;;;10.00;5.53;;;28.50;55.50;;;;;;6244541;23;20331;-77
2023/07/12 04:22:51;;;;;;;13.23;5.30;;;28.50;55.50;;;;;;6244005;23;20031;-77
2023/07/12 04:25:18;;;;;;;12.18;5.05;;;28.50;55.10;;;;;;6244365;23;19996;-76
2023/07/12 04:27:44;;;;;;;16.17;5.07;;;28.60;55.20;;;;;;6244087;23;20082;-76
2023/07/12 04:30:15;;;;;;;13.02;5.40;;;28.50;55.20;;;;;;6243866;23;20003;-74
2023/07/12 04:32:41;;;;;;;12.48;5.22;;;28.50;56.00;;;;;;6244377;23;20008;-76
2023/07/12 04:35:10;;;;;;;13.48;5.50;;;28.60;55.50;;;;;;6243924;23;20087;-77
2023/07/12 04:37:36;;;;;;;17.42;7.28;;;28.60;55.60;;;;;;6244070;23;20423;-77
2023/07/12 04:40:02;;;;;;;16.33;6.30;;;28.60;55.70;;;;;;6244526;23;20034;-77
2023/07/12 04:42:28;;;;;;;16.95;5.82;;;28.60;55.90;;;;;;6246145;23;20338;-77
2023/07/12 04:44:53;;;;;;;14.45;5.57;;;28.60;55.70;;;;;;6245960;23;20066;-77
2023/07/12 04:47:19;;;;;;;12.75;5.55;;;28.40;55.80;;;;;;6247297;23;20418;-76
2023/07/12 04:49:45;;;;;;;17.80;5.57;;;28.40;56.00;;;;;;6246223;23;20386;-78
2023/07/12 04:52:11;;;;;;;12.68;5.55;;;28.50;56.20;;;;;;6245590;23;20008;-77
2023/07/12 04:54:39;;;;;;;15.73;5.43;;;28.50;56.10;;;;;;6245815;23;20313;-78
2023/07/12 04:57:06;;;;;;;15.35;5.85;;;28.50;56.00;;;;;;6246240;23;20000;-78
2023/07/12 04:59:32;;;;;;;12.07;5.47;;;28.50;56.10;;;;;;6245928;23;20000;-77
2023/07/12 05:01:57;;;;;;;11.50;5.25;;;28.60;56.20;;;;;;6246359;23;20058;-77
2023/07/12 05:04:23;;;;;;;16.25;6.57;;;28.60;56.10;;;;;;6245888;23;20007;-78
2023/07/12 05:06:51;;;;;;;19.35;6.00;;;28.60;56.20;;;;;;6219923;23;20000;-79
2023/07/12 05:09:18;;;;;;;15.45;5.78;;;28.60;56.00;;;;;;6246568;23;20000;-79
2023/07/12 05:11:43;;;;;;;12.90;6.07;;;28.70;56.40;;;;;;6246240;23;20007;-78
2023/07/12 05:14:09;;;;;;;10.77;5.03;;;28.70;56.50;;;;;;6245687;23;20394;-77
2023/07/12 05:16:35;;;;;;;15.10;5.47;;;28.70;56.50;;;;;;6245807;23;20000;-77
2023/07/12 05:19:00;;;;;;;13.45;5.53;;;28.80;56.40;;;;;;6245498;23;20015;-78
2023/07/12 05:21:26;;;;;;;13.00;5.28;;;28.90;56.10;;;;;;6245641;23;19996;-77
2023/07/12 05:23:52;;;;;;;14.38;5.78;;;29.00;55.80;;;;;;6245552;23;20004;-77
2023/07/12 05:26:17;;;;;;;13.73;5.65;;;29.10;55.70;;;;;;6218862;23;20009;-77
2023/07/12 05:28:43;;;;;;;17.77;5.20;;;29.40;55.10;;;;;;6245716;23;20011;-79
2023/07/12 05:31:11;;;;;;;16.25;5.60;;;29.60;54.80;;;;;;6245704;23;20463;-77
2023/07/12 05:33:42;;;;;;;13.25;5.72;;;29.70;54.50;;;;;;6245672;23;20070;-77
2023/07/12 05:36:07;;;;;;;9.88;4.85;;;29.90;54.10;;;;;;6245545;23;20000;-77
2023/07/12 05:38:33;;;;;;;18.42;5.65;;;30.10;53.20;;;;;;6245677;23;20071;-77
2023/07/12 05:40:59;;;;;;;16.27;5.53;;;30.30;53.00;;;;;;6245691;23;20429;-78
2023/07/12 05:43:25;;;;;;;16.00;5.22;;;30.60;52.70;;;;;;6245401;23;20082;-79
2023/07/12 05:45:52;;;;;;;14.50;5.18;;;30.90;52.30;;;;;;6246168;23;20012;-78
2023/07/12 05:48:18;;;;;;;18.50;5.65;;;31.10;51.90;;;;;;6245651;23;20441;-78
2023/07/12 05:50:44;;;;;;;14.50;5.22;;;31.30;51.90;;;;;;6245705;23;20000;-78
2023/07/12 05:53:09;;;;;;;15.38;5.35;;;31.50;51.80;;;;;;6244934;23;20003;-78
2023/07/12 05:55:35;;;;;;;15.50;5.03;;;31.60;51.20;;;;;;6245257;23;20083;-76
2023/07/12 05:58:01;;;;;;;15.88;5.00;;;31.80;51.10;;;;;;6245416;23;20049;-79
2023/07/12 06:00:27;;;;;;;14.50;4.80;;;32.00;50.50;;;;;;6245465;23;20458;-78
2023/07/12 06:02:53;;;;;;;16.88;5.25;;;32.20;50.40;;;;;;6245320;23;20039;-78
2023/07/12 06:05:19;;;;;;;17.30;4.95;;;32.30;49.60;;;;;;6218056;23;19996;-78
2023/07/12 06:07:45;;;;;;;17.02;5.50;;;32.40;49.40;;;;;;6245206;23;20011;-79
2023/07/12 06:10:11;;;;;;;15.48;5.47;;;32.50;49.50;;;;;;6244990;23;19996;-78
2023/07/12 06:12:38;;;;;;;18.35;4.90;;;32.60;49.00;;;;;;6244866;23;20008;-78
2023/07/12 06:15:04;;;;;;;14.32;5.35;;;32.70;49.00;;;;;;6244968;23;20086;-78
2023/07/12 06:17:31;;;;;;;22.58;5.40;;;32.90;48.50;;;;;;6244963;23;20330;-78
2023/07/12 06:19:57;;;;;;;17.67;5.13;;;33.20;48.80;;;;;;6244715;23;20406;-77
2023/07/12 06:22:23;;;;;;;22.50;5.55;;;33.50;48.00;;;;;;6246220;23;19996;-77
2023/07/12 06:24:48;;;;;;;16.02;5.25;;;33.60;47.60;;;;;;6245050;23;20035;-79
2023/07/12 06:27:14;;;;;;;20.85;5.50;;;33.60;47.60;;;;;;6245119;23;20004;-78
2023/07/12 06:29:47;;;;;;;18.13;6.43;;;33.70;47.40;;;;;;6244085;23;19997;-79
2023/07/12 06:32:13;;;;;;;17.13;5.50;;;33.90;47.30;;;;;;6244657;23;20133;-78
2023/07/12 06:34:39;;;;;;;23.02;5.88;;;34.00;46.90;;;;;;6244655;23;20016;-78
2023/07/12 06:37:08;;;;;;;17.10;5.28;;;34.00;46.90;;;;;;6244586;23;19996;-77
2023/07/12 06:39:34;;;;;;;19.25;5.65;;;34.10;47.20;;;;;;6244445;23;20024;-77
2023/07/12 06:42:00;;;;;;;15.68;5.50;;;34.30;47.00;;;;;;6218200;23;20008;-79
2023/07/12 06:44:26;;;;;;;15.43;5.25;;;34.40;46.70;;;;;;6244354;23;20364;-78
2023/07/12 06:46:52;;;;;;;15.73;5.55;;;34.60;46.20;;;;;;6245352;23;20005;-78
2023/07/12 06:49:17;;;;;;;22.88;5.78;;;34.70;46.40;;;;;;6244668;23;20477;-79
2023/07/12 06:51:46;;;;;;;16.63;6.18;;;34.80;45.70;;;;;;6217545;23;20008;-77
2023/07/12 06:54:14;;;;;;;14.80;5.38;;;35.00;45.30;;;;;;6244216;23;20020;-77
2023/07/12 06:56:40;;;;;;;30.10;7.90;;;35.00;45.60;;;;;;6244340;23;19996;-78
2023/07/12 06:59:06;;;;;;;19.98;6.78;;;34.90;45.20;;;;;;6244328;23;20079;-78
2023/07/12 07:01:32;;;;;;;22.45;7.03;;;35.10;44.90;;;;;;6244176;23;20050;-78
2023/07/12 07:03:57;;;;;;;37.45;9.52;;;35.20;44.70;;;;;;6244314;23;20004;-78
2023/07/12 07:06:24;;;;;;;32.50;7.55;;;35.20;44.40;;;;;;6244269;23;20004;-77
2023/07/12 07:08:50;;;;;;;18.42;5.95;;;35.20;44.30;;;;;;6244275;23;20004;-77
2023/07/12 07:11:16;;;;;;;20.45;6.15;;;35.30;43.80;;;;;;6243795;23;20448;-78
2023/07/12 07:13:43;;;;;;;17.77;6.15;;;35.50;43.80;;;;;;6243748;23;20008;-77
2023/07/12 07:16:09;;;;;;;17.25;5.43;;;35.60;43.60;;;;;;6244076;23;20000;-77
2023/07/12 07:18:35;;;;;;;16.42;5.63;;;35.60;43.50;;;;;;6244288;23;20326;-77
2023/07/12 07:21:01;;;;;;;19.30;5.38;;;35.70;43.30;;;;;;6244076;23;20050;-77
2023/07/12 07:23:27;;;;;;;11.25;5.40;;;35.80;43.20;;;;;;6244277;23;20004;-77
2023/07/12 07:25:52;;;;;;;12.63;5.00;;;35.90;42.70;;;;;;6244218;23;20000;-79
2023/07/12 07:28:20;;;;;;;9.27;4.65;;;36.00;42.20;;;;;;6244830;23;20407;-79
2023/07/12 07:30:55;;;;;;;10.73;4.78;;;36.00;41.80;;;;;;6243884;23;20020;-78
2023/07/12 07:33:21;;;;;;;12.70;4.70;;;36.10;41.80;;;;;;6243981;23;20092;-79
2023/07/12 07:35:47;;;;;;;8.93;4.63;;;36.20;41.00;;;;;;6244321;23;20334;-79
2023/07/12 07:38:13;;;;;;;9.02;4.63;;;36.20;40.60;;;;;;6244564;23;20075;-79
2023/07/12 07:40:43;;;;;;;9.48;4.55;;;36.20;40.10;;;;;;6244371;23;20009;-78
2023/07/12 07:43:10;;;;;;;11.13;4.38;;;36.20;39.50;;;;;;6244605;23;20007;-78
2023/07/12 07:45:36;;;;;;;11.20;4.50;;;36.20;39.40;;;;;;6244650;23;20299;-79
2023/07/12 07:48:02;;;;;;;14.70;4.53;;;36.20;39.10;;;;;;6245361;23;20005;-78
2023/07/12 07:50:28;;;;;;;10.77;4.68;;;36.20;39.00;;;;;;6246855;23;20001;-77
2023/07/12 07:52:54;;;;;;;11.75;4.93;;;36.30;39.20;;;;;;6247956;23;20004;-79
2023/07/12 07:55:22;;;;;;;10.88;4.38;;;36.30;39.00;;;;;;6245432;23;20108;-79
2023/07/12 07:57:48;;;;;;;17.55;4.57;;;36.20;38.60;;;;;;6245232;23;20035;-78
2023/07/12 08:00:15;;;;;;;12.50;4.88;;;36.10;38.40;;;;;;6217564;23;20290;-78
2023/07/12 08:02:42;;;;;;;15.55;4.72;;;36.10;38.60;;;;;;6244960;23;20009;-78
2023/07/12 08:05:12;;;;;;;14.55;5.32;;;36.00;38.40;;;;;;6244441;23;20001;-78
2023/07/12 08:07:43;;;;;;;13.82;4.93;;;36.00;38.50;;;;;;6244653;23;20253;-79
2023/07/12 08:10:11;;;;;;;11.63;4.53;;;36.00;38.70;;;;;;6244433;23;20438;-78
2023/07/12 08:12:37;;;;;;;17.48;5.10;;;36.00;38.80;;;;;;6244358;23;20008;-79
2023/07/12 08:15:04;;;;;;;13.48;4.13;;;35.90;38.70;;;;;;6245403;23;20039;-77
2023/07/12 08:17:30;;;;;;;20.67;5.57;;;35.80;38.90;;;;;;6246083;23;19996;-78
2023/07/12 08:19:56;;;;;;;9.48;4.25;;;35.80;38.90;;;;;;6246252;23;20461;-77
2023/07/12 08:22:22;;;;;;;13.45;4.88;;;35.60;38.70;;;;;;6246548;23;19996;-78
2023/07/12 08:24:48;;;;;;;8.63;4.30;;;35.60;39.00;;;;;;6246261;23;20011;-78
2023/07/12 08:27:16;;;;;;;9.05;3.80;;;35.50;38.90;;;;;;6246209;23;20419;-77
2023/07/12 08:29:44;;;;;;;11.88;4.00;;;35.40;38.90;;;;;;6246544;23;20004;-78
2023/07/12 08:32:11;;;;;;;26.10;4.97;;;35.40;39.70;;;;;;6246530;23;20016;-78
2023/07/12 08:34:37;;;;;;;8.55;4.25;;;35.30;39.20;;;;;;6246396;23;20108;-78
2023/07/12 08:37:03;;;;;;;12.48;4.63;;;35.20;39.30;;;;;;6246075;23;20403;-77
2023/07/12 08:39:29;;;;;;;8.68;4.43;;;35.20;39.50;;;;;;6246224;23;20083;-77
2023/07/12 08:41:55;;;;;;;11.57;3.92;;;35.00;39.60;;;;;;6246978;23;20405;-79
2023/07/12 08:44:23;;;;;;;20.42;4.80;;;35.00;39.80;;;;;;6246518;23;20008;-77
2023/07/12 08:46:56;;;;;;;11.98;4.15;;;34.90;40.00;;;;;;6246517;23;20023;-77
2023/07/12 08:49:23;;;;;;;;;;;34.90;40.10;;;;;;6246807;23;20079;-78
2023/07/12 08:51:49;;;;;;;12.93;4.35;;;34.90;40.40;;;;;;6246353;23;20270;-78
2023/07/12 08:54:34;;;;;;;12.23;4.05;;;34.90;40.50;;;;;;6246161;23;20452;-79
2023/07/12 08:57:21;;;;;;;10.32;4.43;;;34.90;40.60;;;;;;6246280;23;20000;-79
2023/07/12 09:00:05;;;;;;;15.48;4.57;;;34.80;40.40;;;;;;6245657;23;20123;-78
2023/07/12 09:02:31;;;;;;;12.65;4.68;;;34.80;40.80;;;;;;6245824;23;20071;-77
2023/07/12 09:04:59;;;;;;;10.30;4.57;;;34.90;40.80;;;;;;6246073;23;19997;-78
2023/07/12 09:07:31;;;;;;;12.38;4.53;;;34.90;40.70;;;;;;6249380;23;20006;-78
2023/07/12 09:09:59;;;;;;;9.02;4.40;;;34.90;40.50;;;;;;6246179;23;20022;-80
2023/07/12 09:12:29;;;;;;;16.25;4.78;;;34.90;40.70;;;;;;6246022;23;20437;-77
2023/07/12 09:15:04;;;;;;;12.90;5.03;;;34.90;40.70;;;;;;6218907;23;20012;-77
2023/07/12 09:17:38;;;;;;;11.82;5.00;;;34.90;41.20;;;;;;6246166;23;20004;-78
2023/07/12 09:20:24;;;;;;;11.32;4.50;;;34.90;40.60;;;;;;6245869;23;20441;-78
2023/07/12 09:22:53;;;;;;;18.45;4.95;;;34.90;41.20;;;;;;6245456;23;20003;-78
2023/07/12 09:25:25;;;;;;;12.05;4.43;;;34.90;41.10;;;;;;6245837;23;20004;-78
2023/07/12 09:27:51;;;;;;;11.63;4.60;;;34.80;40.60;;;;;;6246351;23;20306;-77
2023/07/12 09:30:25;;;;;;;12.18;4.55;;;34.90;40.90;;;;;;6251436;23;20007;-78
2023/07/12 09:32:53;;;;;;;15.13;4.53;;;34.90;41.10;;;;;;6257846;23;20015;-79
2023/07/12 09:35:47;;;;;;;15.45;4.57;;;34.90;41.00;;;;;;6248175;23;20434;-77
2023/07/12 09:38:23;;;;;;;14.63;4.97;;;34.90;41.10;;;;;;6248551;23;20056;-78
2023/07/12 09:40:51;;;;;;;12.00;5.30;;;35.00;41.20;;;;;;6248494;23;20031;-78
2023/07/12 09:43:24;;;;;;;16.20;4.97;;;35.10;41.20;;;;;;6218735;23;20004;-78
2023/07/12 09:46:18;;;;;;;12.65;4.30;;;35.00;40.30;;;;;;6245434;23;20430;-81
2023/07/12 09:49:06;;;;;;;14.70;4.82;;;35.00;41.70;;;;;;6244949;23;20007;-77
2023/07/12 09:51:34;;;;;;;17.85;4.38;;;35.10;40.90;;;;;;6245199;23;20111;-77
2023/07/12 09:54:24;;;;;;;16.73;4.45;;;35.00;41.20;;;;;;6245183;23;20415;-77
2023/07/12 09:57:02;;;;;;;21.02;4.60;;;35.00;40.80;;;;;;6245601;23;20050;-79
2023/07/12 09:59:36;;;;;;;12.40;4.88;;;35.00;41.50;;;;;;6245117;23;20007;-78
2023/07/12 10:02:20;;;;;;;9.25;4.90;;;35.00;40.80;;;;;;6245199;23;20030;-79
2023/07/12 10:05:08;;;;;;;19.40;4.78;;;35.00;41.30;;;;;;6244801;23;20031;-78
2023/07/12 10:08:02;;;;;;;20.50;4.50;;;35.00;41.20;;;;;;6244903;23;19996;-77
2023/07/12 10:10:39;;;;;;;19.08;5.25;;;35.10;41.30;;;;;;6245106;23;20007;-78
2023/07/12 10:13:32;;;;;;;15.07;5.05;;;35.20;40.80;;;;;;6246655;23;20396;-78
2023/07/12 10:16:00;;;;;;;16.70;4.90;;;35.20;41.30;;;;;;6245780;23;20007;-78
2023/07/12 10:18:30;;;;;;;12.30;4.90;;;35.20;40.50;;;;;;6245047;23;20306;-77
2023/07/12 10:20:56;;;;;;;15.82;4.70;;;35.20;40.40;;;;;;6245271;23;20311;-79
2023/07/12 10:23:28;;;;;;;16.98;4.75;;;35.30;40.70;;;;;;6245381;23;20083;-80
2023/07/12 10:25:57;;;;;;;11.10;4.60;;;35.30;41.00;;;;;;6244788;23;20015;-78
2023/07/12 10:29:07;;;;;;;12.80;4.13;;;35.30;40.20;;;;;;6244891;23;20028;-77
2023/07/12 10:31:56;;;;;;;15.93;4.85;;;35.30;41.00;;;;;;6162871;23;20023;-78
2023/07/12 10:34:32;;;;;;;13.35;4.80;;;35.30;40.90;;;;;;6217764;23;20450;-77
2023/07/12 10:37:05;;;;;;;18.98;5.00;;;35.40;40.90;;;;;;6244276;23;20012;-78
2023/07/12 10:39:32;;;;;;;15.07;4.22;;;35.50;40.60;;;;;;6244850;23;20055;-78
2023/07/12 10:42:10;;;;;;;19.83;4.85;;;35.50;40.60;;;;;;6245393;23;20071;-77
2023/07/12 10:44:43;;;;;;;17.83;5.32;;;35.50;41.00;;;;;;6246586;23;20011;-79
2023/07/12 10:47:15;;;;;;;14.68;4.90;;;35.50;40.40;;;;;;6217266;23;20008;-78
2023/07/12 10:49:41;;;;;;;19.88;4.80;;;35.50;40.50;;;;;;6244575;23;20083;-79
2023/07/12 10:52:09;;;;;;;22.30;5.50;;;35.60;40.40;;;;;;6245358;23;20351;-78
2023/07/12 10:54:35;;;;;;;18.48;5.13;;;35.60;40.40;;;;;;6244904;23;20446;-78
2023/07/12 10:57:24;;;;;;;17.83;5.13;;;35.70;40.30;;;;;;6244735;23;20027;-78
2023/07/12 11:00:00;;;;;;;18.98;6.28;;;35.80;39.90;;;;;;6244986;23;19996;-79
2023/07/12 11:02:28;;;;;;;17.98;4.82;;;35.80;39.80;;;;;;6245324;23;20027;-79
2023/07/12 11:04:55;;;;;;;15.98;4.88;;;35.80;39.40;;;;;;6259884;23;20382;-77
2023/07/12 11:07:21;;;;;;;18.50;5.25;;;35.90;39.80;;;;;;6247245;23;20000;-78
2023/07/12 11:09:47;;;;;;;20.55;5.03;;;35.90;39.90;;;;;;6245149;23;20034;-78
2023/07/12 11:12:30;;;;;;;15.32;5.10;;;35.90;40.00;;;;;;6245007;23;20426;-77
2023/07/12 11:15:25;;;;;;;18.10;5.25;;;36.00;40.70;;;;;;6244181;23;20019;-78
2023/07/12 11:18:04;;;;;;;18.15;4.90;;;36.10;40.80;;;;;;6245989;23;20019;-77
2023/07/12 11:20:35;;;;;;;11.27;4.70;;;36.10;40.60;;;;;;6246536;23;19996;-78
2023/07/12 11:23:26;;;;;;;16.15;5.28;;;36.10;40.00;;;;;;6246022;23;20004;-81
2023/07/12 11:26:02;;;;;;;17.52;4.75;;;36.10;40.60;;;;;;6224647;23;20008;-79
2023/07/12 11:28:45;;;;;;;12.98;4.63;;;36.20;39.90;;;;;;6244691;23;20004;-79
2023/07/12 11:31:29;;;;;;;17.90;5.25;;;36.20;40.10;;;;;;6244392;23;20095;-79
2023/07/12 11:33:57;;;;;;;16.13;4.93;;;36.20;39.80;;;;;;6244539;23;20023;-80
2023/07/12 11:36:28;;;;;;;16.23;5.20;;;36.20;40.40;;;;;;6244486;23;20004;-80
2023/07/12 11:38:56;;;;;;;16.92;4.70;;;36.30;40.00;;;;;;6244815;23;20008;-77
2023/07/12 11:41:26;;;;;;;21.98;5.65;;;36.30;40.00;;;;;;6243902;23;20023;-79
2023/07/12 11:44:07;;;;;;;27.48;4.68;;;36.40;40.10;;;;;;6243980;23;20032;-79
2023/07/12 11:46:35;;;;;;;19.73;5.55;;;36.40;39.90;;;;;;6244604;23;20442;-80
2023/07/12 11:49:04;;;;;;;21.13;5.55;;;36.40;39.20;;;;;;6245562;23;20004;-79
2023/07/12 11:51:38;;;;;;;16.65;4.43;;;36.40;38.90;;;;;;6246754;23;20369;-78
2023/07/12 11:54:26;;;;;;;16.58;4.90;;;36.40;39.00;;;;;;6246361;23;20389;-77
2023/07/12 11:56:58;;;;;;;19.98;5.43;;;36.50;39.10;;;;;;6246966;23;20008;-77
2023/07/12 11:59:27;;;;;;;15.73;5.50;;;36.50;38.80;;;;;;6220158;23;20028;-77
2023/07/12 12:01:53;;;;;;;27.23;5.78;;;36.60;38.90;;;;;;6246471;23;20000;-79
2023/07/12 12:04:26;;;;;;;21.20;4.72;;;36.60;38.90;;;;;;6246679;23;20007;-79
2023/07/12 12:06:55;;;;;;;15.88;4.75;;;36.60;38.80;;;;;;6219599;23;20003;-79
2023/07/12 12:09:30;;;;;;;16.75;5.10;;;36.60;38.60;;;;;;6246797;23;20000;-79
2023/07/12 12:11:58;;;;;;;16.00;4.88;;;36.70;39.20;;;;;;6246595;23;20423;-78
2023/07/12 12:14:29;;;;;;;16.48;4.78;;;36.60;38.60;;;;;;6246370;23;20012;-78
2023/07/12 12:16:57;;;;;;;26.17;5.20;;;36.70;38.50;;;;;;6219524;23;20050;-78
2023/07/12 12:19:30;;;;;;;15.90;4.53;;;36.60;38.20;;;;;;6246325;23;20012;-77
2023/07/12 12:22:15;;;;;;;21.25;5.55;;;36.70;38.30;;;;;;6247025;23;20342;-78
2023/07/12 12:24:54;;;;;;;16.08;4.50;;;36.60;37.80;;;;;;6248853;23;20000;-79
2023/07/12 12:27:27;;;;;;;15.13;5.38;;;36.60;38.00;;;;;;6246603;23;20351;-77
2023/07/12 12:29:53;;;;;;;15.52;4.60;;;36.70;37.80;;;;;;6219652;23;20026;-80
2023/07/12 12:32:21;;;;;;;12.10;4.53;;;36.80;38.10;;;;;;6245783;23;20020;-79
2023/07/12 12:34:53;;;;;;;10.15;4.53;;;36.80;38.10;;;;;;6246200;23;20027;-79
2023/07/12 12:37:27;;;;;;;18.37;4.60;;;36.80;37.80;;;;;;6246225;23;20050;-78
2023/07/12 12:39:57;;;;;;;17.95;4.50;;;36.80;38.30;;;;;;6245814;23;20058;-78
2023/07/12 12:42:25;;;;;;;18.13;4.88;;;36.90;37.70;;;;;;6245858;23;20268;-78
2023/07/12 12:44:51;;;;;;;17.88;4.57;;;36.90;37.60;;;;;;6245874;23;20303;-77
2023/07/12 12:47:23;;;;;;;23.65;5.40;;;36.90;37.40;;;;;;6245412;23;20000;-78
2023/07/12 12:49:49;;;;;;;27.98;5.80;;;36.90;37.00;;;;;;6245357;23;20134;-76